createdAt,value
2019-04-25T00:00:12.730Z,1.32
2019-04-25T00:02:44.808Z,1.30
2019-04-25T00:05:14.798Z,1.22
2019-04-25T00:07:44.005Z,1.90
2019-04-25T00:10:14.176Z,1.42
2019-04-25T00:12:44.429Z,1.42
2019-04-25T00:15:13.946Z,1.40
2019-04-25T00:17:44.402Z,1.40
2019-04-25T00:20:13.841Z,1.55
2019-04-25T00:22:51.548Z,1.10
2019-04-25T00:25:38.141Z,1.22
2019-04-25T00:28:08.733Z,1.45
2019-04-25T00:30:38.187Z,1.50
2019-04-25T00:33:07.406Z,1.00
2019-04-25T00:35:36.575Z,1.55
2019-04-25T00:38:05.799Z,1.45
2019-04-25T00:40:34.963Z,1.40
2019-04-25T00:43:04.109Z,1.50
2019-04-25T00:45:33.298Z,1.35
2019-04-25T00:48:04.384Z,1.47
2019-04-25T00:50:33.377Z,1.47
2019-04-25T00:53:02.539Z,1.50
2019-04-25T00:55:31.675Z,1.67
2019-04-25T00:58:05.416Z,1.60
2019-04-25T01:00:45.402Z,1.62
2019-04-25T01:03:16.191Z,1.87
2019-04-25T01:05:45.727Z,1.70
2019-04-25T01:08:15.079Z,1.80
2019-04-25T01:10:44.414Z,1.60
2019-04-25T01:13:13.776Z,1.90
2019-04-25T01:15:42.962Z,1.42
2019-04-25T01:18:12.309Z,1.35
2019-04-25T01:20:43.220Z,1.55
2019-04-25T01:23:13.775Z,1.60
2019-04-25T01:25:44.717Z,1.47
2019-04-25T01:28:14.030Z,1.57
2019-04-25T01:30:43.891Z,1.70
2019-04-25T01:33:14.183Z,1.52
2019-04-25T01:35:45.036Z,1.67
2019-04-25T01:38:24.991Z,1.55
2019-04-25T01:40:58.474Z,1.42
2019-04-25T01:43:41.326Z,1.35
2019-04-25T01:46:11.141Z,1.62
2019-04-25T01:48:40.365Z,1.50
2019-04-25T01:51:09.526Z,1.60
2019-04-25T01:53:38.679Z,1.10
2019-04-25T01:56:07.995Z,1.70
2019-04-25T01:58:37.265Z,1.82
2019-04-25T02:01:06.600Z,1.50
2019-04-25T02:03:35.760Z,1.90
2019-04-25T02:06:05.100Z,1.70
2019-04-25T02:08:35.427Z,1.50
2019-04-25T02:11:24.369Z,1.90
2019-04-25T02:13:54.926Z,1.77
2019-04-25T02:16:24.476Z,1.82
2019-04-25T02:18:55.102Z,1.60
2019-04-25T02:21:24.572Z,1.42
2019-04-25T02:23:55.428Z,1.95
2019-04-25T02:26:24.601Z,1.87
2019-04-25T02:28:55.228Z,1.92
2019-04-25T02:31:24.875Z,1.80
2019-04-25T02:33:58.818Z,2.05
2019-04-25T02:36:24.926Z,1.80
2019-04-25T02:38:57.560Z,1.80
2019-04-25T02:41:25.121Z,2.20
2019-04-25T02:43:56.333Z,1.80
2019-04-25T02:46:36.842Z,2.12
2019-04-25T02:49:09.053Z,1.70
2019-04-25T02:51:49.770Z,1.70
2019-04-25T02:54:19.005Z,2.57
2019-04-25T02:56:48.160Z,2.20
2019-04-25T02:59:17.393Z,1.80
2019-04-25T03:01:46.620Z,1.90
2019-04-25T03:04:15.771Z,1.90
2019-04-25T03:06:45.568Z,1.98
2019-04-25T03:09:15.602Z,2.00
2019-04-25T03:11:47.409Z,1.77
2019-04-25T03:14:15.877Z,1.95
2019-04-25T03:16:45.116Z,1.85
2019-04-25T03:19:28.102Z,2.20
2019-04-25T03:22:15.323Z,2.10
2019-04-25T03:24:45.867Z,1.90
2019-04-25T03:27:15.185Z,1.90
2019-04-25T03:29:45.701Z,1.90
2019-04-25T03:32:19.529Z,1.90
2019-04-25T03:34:46.049Z,2.50
2019-04-25T03:37:15.198Z,1.80
2019-04-25T03:39:44.329Z,2.22
2019-04-25T03:42:14.118Z,4.28
2019-04-25T03:44:43.899Z,2.75
2019-04-25T03:47:14.362Z,3.22
2019-04-25T03:49:43.542Z,2.20
2019-04-25T03:52:14.202Z,2.12
2019-04-25T03:54:44.600Z,2.50
2019-04-25T03:57:14.609Z,2.30
2019-04-25T03:59:44.957Z,2.35
2019-04-25T04:02:15.233Z,2.70
2019-04-25T04:04:44.527Z,2.60
2019-04-25T04:07:14.704Z,2.30
2019-04-25T04:09:44.677Z,2.40
2019-04-25T04:12:14.795Z,3.67
2019-04-25T04:14:45.051Z,2.52
2019-04-25T04:17:21.783Z,2.17
2019-04-25T04:20:01.615Z,1.90
2019-04-25T04:22:36.328Z,2.50
2019-04-25T04:25:07.557Z,2.95
2019-04-25T04:27:36.948Z,2.40
2019-04-25T04:30:07.963Z,2.58
2019-04-25T04:32:37.255Z,2.35
2019-04-25T04:35:07.212Z,2.40
2019-04-25T04:37:36.634Z,2.30
2019-04-25T04:40:09.611Z,1.95
2019-04-25T04:42:38.980Z,2.27
2019-04-25T04:45:08.486Z,2.72
2019-04-25T04:47:37.784Z,2.70
2019-04-25T04:50:07.015Z,2.83
2019-04-25T04:52:36.191Z,2.65
2019-04-25T04:55:08.549Z,3.17
2019-04-25T04:57:37.027Z,2.35
2019-04-25T05:00:07.241Z,2.37
2019-04-25T05:02:40.738Z,2.70
2019-04-25T05:05:16.023Z,2.90
2019-04-25T05:07:50.369Z,2.75
2019-04-25T05:10:20.046Z,2.22
2019-04-25T05:12:50.527Z,2.50
2019-04-25T05:15:20.569Z,2.30
2019-04-25T05:17:49.836Z,2.77
2019-04-25T05:20:18.978Z,2.30
2019-04-25T05:22:49.355Z,2.62
2019-04-25T05:25:19.165Z,2.75
2019-04-25T05:27:59.581Z,2.22
2019-04-25T05:30:26.505Z,2.22
2019-04-25T05:32:55.166Z,2.90
2019-04-25T05:35:25.275Z,2.15
2019-04-25T05:37:54.774Z,2.30
2019-04-25T05:40:24.496Z,2.10
2019-04-25T05:43:03.303Z,2.40
2019-04-25T05:45:34.150Z,2.33
2019-04-25T05:48:05.687Z,2.00
2019-04-25T05:50:34.363Z,2.22
2019-04-25T05:53:04.326Z,1.85
2019-04-25T05:55:34.203Z,2.27
2019-04-25T05:58:03.960Z,1.55
2019-04-25T06:00:33.995Z,1.37
2019-04-25T06:03:03.785Z,1.57
2019-04-25T06:05:33.615Z,1.65
2019-04-25T06:08:04.320Z,1.37
2019-04-25T06:10:47.407Z,1.40
2019-04-25T06:13:37.342Z,1.47
2019-04-25T06:16:08.146Z,1.20
2019-04-25T06:18:41.762Z,1.80
2019-04-25T06:21:13.299Z,1.35
2019-04-25T06:23:50.036Z,1.22
2019-04-25T06:26:32.732Z,1.87
2019-04-25T06:28:57.107Z,1.52
2019-04-25T06:31:21.529Z,1.00
2019-04-25T06:33:53.778Z,1.47
2019-04-25T06:36:24.272Z,1.30
2019-04-25T06:38:54.253Z,0.90
2019-04-25T06:41:25.848Z,1.67
2019-04-25T06:43:56.147Z,1.62
2019-04-25T06:46:44.115Z,1.10
2019-04-25T06:49:26.435Z,1.12
2019-04-25T06:51:56.373Z,2.10
2019-04-25T06:54:26.808Z,1.47
2019-04-25T06:56:56.717Z,1.05
2019-04-25T06:59:27.426Z,1.10
2019-04-25T07:01:56.761Z,1.42
2019-04-25T07:04:26.962Z,1.30
2019-04-25T07:07:09.340Z,0.90
2019-04-25T07:09:29.537Z,1.07
2019-04-25T07:11:58.746Z,0.70
2019-04-25T07:14:28.177Z,1.10
2019-04-25T07:16:57.428Z,1.30
2019-04-25T07:19:27.130Z,1.20
2019-04-25T07:21:57.439Z,1.30
2019-04-25T07:24:27.715Z,1.20
2019-04-25T07:27:15.057Z,0.90
2019-04-25T07:29:46.105Z,1.22
2019-04-25T07:32:30.828Z,1.27
2019-04-25T07:34:59.794Z,1.10
2019-04-25T07:37:29.742Z,1.52
2019-04-25T07:39:59.439Z,1.42
2019-04-25T07:42:28.640Z,1.20
2019-04-25T07:44:57.849Z,1.00
2019-04-25T07:47:27.149Z,1.90
2019-04-25T07:49:56.419Z,1.17
2019-04-25T07:52:26.991Z,1.10
2019-04-25T07:54:56.315Z,0.95
2019-04-25T07:57:25.485Z,0.80
2019-04-25T07:59:54.722Z,0.90
2019-04-25T08:02:23.919Z,1.07
2019-04-25T08:04:54.157Z,1.02
2019-04-25T08:07:24.136Z,1.10
2019-04-25T08:09:54.175Z,1.35
2019-04-25T08:12:25.222Z,1.12
2019-04-25T08:14:59.180Z,1.02
2019-04-25T08:17:47.878Z,1.12
2019-04-25T08:20:17.241Z,1.90
2019-04-25T08:22:56.248Z,1.62
2019-04-25T08:25:17.379Z,1.07
2019-04-25T08:27:46.654Z,5.00
2019-04-25T08:30:15.879Z,2.20
2019-04-25T08:32:45.058Z,1.22
2019-04-25T08:35:16.086Z,0.90
2019-04-25T08:37:45.104Z,1.05
2019-04-25T08:40:14.446Z,2.45
2019-04-25T08:42:44.210Z,2.05
2019-04-25T08:45:13.553Z,1.10
2019-04-25T08:47:43.902Z,1.10
2019-04-25T08:50:26.935Z,1.30
2019-04-25T08:52:45.761Z,1.17
2019-04-25T08:55:34.950Z,1.30
2019-04-25T08:58:05.579Z,1.10
2019-04-25T09:01:00.789Z,1.20
2019-04-25T09:03:40.877Z,1.40
2019-04-25T09:06:11.105Z,1.50
2019-04-25T09:08:41.076Z,1.27
2019-04-25T09:11:10.738Z,1.30
2019-04-25T09:13:40.958Z,1.77
2019-04-25T09:16:11.428Z,0.98
2019-04-25T09:18:40.705Z,1.27
2019-04-25T09:21:09.919Z,1.35
2019-04-25T09:23:39.648Z,1.52
2019-04-25T09:26:09.001Z,1.85
2019-04-25T09:28:40.577Z,1.30
2019-04-25T09:31:09.075Z,2.25
2019-04-25T09:33:39.199Z,1.07
2019-04-25T09:36:08.405Z,1.05
2019-04-25T09:38:37.650Z,1.40
2019-04-25T09:41:06.867Z,1.22
2019-04-25T09:43:36.143Z,1.15
2019-04-25T09:46:13.318Z,1.55
2019-04-25T09:48:47.082Z,1.10
2019-04-25T09:51:20.901Z,1.20
2019-04-25T09:53:51.693Z,1.32
2019-04-25T09:56:28.658Z,1.07
2019-04-25T09:59:03.717Z,1.47
2019-04-25T10:01:33.890Z,2.85
2019-04-25T10:04:03.384Z,1.50
2019-04-25T10:06:33.297Z,2.15
2019-04-25T10:09:02.671Z,1.95
2019-04-25T10:11:33.657Z,1.10
2019-04-25T10:14:24.539Z,0.98
2019-04-25T10:16:53.976Z,1.40
2019-04-25T10:19:25.861Z,1.17
2019-04-25T10:21:55.371Z,1.05
2019-04-25T10:24:24.607Z,1.35
2019-04-25T10:26:54.773Z,1.07
2019-04-25T10:29:24.084Z,1.20
2019-04-25T10:31:55.447Z,1.35
2019-04-25T10:34:24.275Z,1.07
2019-04-25T10:36:53.449Z,2.33
2019-04-25T10:39:23.846Z,1.60
2019-04-25T10:41:54.046Z,1.00
2019-04-25T10:44:24.578Z,1.20
2019-04-25T10:46:54.590Z,0.70
2019-04-25T10:49:24.980Z,1.20
2019-04-25T10:51:54.138Z,1.45
2019-04-25T10:54:24.374Z,1.50
2019-04-25T10:56:54.694Z,1.37
2019-04-25T10:59:23.845Z,2.72
2019-04-25T11:01:53.924Z,1.10
2019-04-25T11:04:25.522Z,0.93
2019-04-25T11:06:55.214Z,1.00
2019-04-25T11:09:25.819Z,1.72
2019-04-25T11:11:55.002Z,1.98
2019-04-25T11:14:24.302Z,1.20
2019-04-25T11:17:03.578Z,1.52
2019-04-25T11:19:34.340Z,1.10
2019-04-25T11:22:05.114Z,1.10
2019-04-25T11:24:34.395Z,1.20
2019-04-25T11:27:04.342Z,1.30
2019-04-25T11:29:34.164Z,1.22
2019-04-25T11:32:03.961Z,1.90
2019-04-25T11:34:33.175Z,0.70
2019-04-25T11:37:03.710Z,1.12
2019-04-25T11:39:54.587Z,1.20
2019-04-25T11:42:23.789Z,1.20
2019-04-25T11:44:54.506Z,0.72
2019-04-25T11:47:24.312Z,1.27
2019-04-25T11:49:54.613Z,1.20
2019-04-25T11:52:28.267Z,0.90
2019-04-25T11:54:55.809Z,1.00
2019-04-25T11:57:25.108Z,0.80
2019-04-25T11:59:55.536Z,0.75
2019-04-25T12:02:26.089Z,0.90
2019-04-25T12:04:55.345Z,0.75
2019-04-25T12:07:24.667Z,1.22
2019-04-25T12:09:54.474Z,0.70
2019-04-25T12:12:24.875Z,0.70
2019-04-25T12:14:55.282Z,0.85
2019-04-25T12:17:24.675Z,0.70
2019-04-25T12:19:54.990Z,0.80
2019-04-25T12:22:25.079Z,0.82
2019-04-25T12:24:55.612Z,0.62
2019-04-25T12:27:25.745Z,0.80
2019-04-25T12:29:55.978Z,0.80
2019-04-25T12:32:25.146Z,0.90
2019-04-25T12:34:54.341Z,1.22
2019-04-25T12:37:25.000Z,0.80
2019-04-25T12:39:54.350Z,0.93
2019-04-25T12:42:24.166Z,1.12
2019-04-25T12:44:56.083Z,0.93
2019-04-25T12:47:27.095Z,0.85
2019-04-25T12:49:56.321Z,0.85
2019-04-25T12:52:25.573Z,0.95
2019-04-25T12:54:57.091Z,0.85
2019-04-25T12:57:25.623Z,0.65
2019-04-25T12:59:55.453Z,0.75
2019-04-25T13:02:24.807Z,0.90
2019-04-25T13:04:55.412Z,1.00
2019-04-25T13:07:24.793Z,0.93
2019-04-25T13:09:53.953Z,0.78
2019-04-25T13:12:23.428Z,0.85
2019-04-25T13:14:52.732Z,0.80
2019-04-25T13:17:21.909Z,0.80
2019-04-25T13:19:51.228Z,0.72
2019-04-25T13:22:20.518Z,0.80
2019-04-25T13:24:49.667Z,0.90
2019-04-25T13:27:23.526Z,1.07
2019-04-25T13:30:05.249Z,0.70
2019-04-25T13:32:36.355Z,1.10
2019-04-25T13:35:09.678Z,0.80
2019-04-25T13:37:38.194Z,0.93
2019-04-25T13:40:07.677Z,0.80
2019-04-25T13:42:36.814Z,1.47
2019-04-25T13:45:07.292Z,1.35
2019-04-25T13:47:37.519Z,2.05
2019-04-25T13:50:07.646Z,0.93
2019-04-25T13:52:37.231Z,0.95
2019-04-25T13:55:06.583Z,1.02
2019-04-25T13:57:36.455Z,1.22
2019-04-25T14:00:07.155Z,0.98
2019-04-25T14:02:36.397Z,1.05
2019-04-25T14:05:08.259Z,1.80
2019-04-25T14:07:38.569Z,0.90
2019-04-25T14:10:07.724Z,0.80
2019-04-25T14:12:36.977Z,0.80
2019-04-25T14:15:07.777Z,1.02
2019-04-25T14:17:55.426Z,1.20
2019-04-25T14:20:26.480Z,1.20
2019-04-25T14:22:56.191Z,1.10
2019-04-25T14:25:27.148Z,1.42
2019-04-25T14:27:56.378Z,0.85
2019-04-25T14:30:27.182Z,0.90
2019-04-25T14:32:56.451Z,1.30
2019-04-25T14:35:26.576Z,1.00
2019-04-25T14:37:56.019Z,1.20
2019-04-25T14:40:26.090Z,1.17
2019-04-25T14:42:56.274Z,1.10
2019-04-25T14:45:26.453Z,1.02
2019-04-25T14:47:55.960Z,1.17
2019-04-25T14:50:25.563Z,1.10
2019-04-25T14:52:54.949Z,1.67
2019-04-25T14:55:31.723Z,1.22
2019-04-25T14:58:02.069Z,2.08
2019-04-25T15:00:35.683Z,1.10
2019-04-25T15:03:05.930Z,1.32
2019-04-25T15:05:37.147Z,1.05
2019-04-25T15:08:06.877Z,1.02
2019-04-25T15:10:36.304Z,1.20
2019-04-25T15:13:07.199Z,1.17
2019-04-25T15:15:36.345Z,1.45
2019-04-25T15:18:05.513Z,1.20
2019-04-25T15:20:34.678Z,1.10
2019-04-25T15:23:03.987Z,0.90
2019-04-25T15:25:33.202Z,1.27
2019-04-25T15:28:02.590Z,1.22
2019-04-25T15:30:33.407Z,1.42
2019-04-25T15:33:02.830Z,1.82
2019-04-25T15:35:34.492Z,1.40
2019-04-25T15:38:11.133Z,1.52
2019-04-25T15:40:44.677Z,1.12
2019-04-25T15:43:27.758Z,1.40
2019-04-25T15:45:58.755Z,1.00
2019-04-25T15:48:28.840Z,1.62
2019-04-25T15:50:58.189Z,1.30
2019-04-25T15:53:28.491Z,1.32
2019-04-25T15:55:58.474Z,1.80
2019-04-25T15:58:29.699Z,1.30
2019-04-25T16:00:58.654Z,1.30
2019-04-25T16:03:28.342Z,1.15
2019-04-25T16:05:57.580Z,1.37
2019-04-25T16:08:27.600Z,1.27
2019-04-25T16:10:57.130Z,1.30
2019-04-25T16:13:26.981Z,1.02
2019-04-25T16:15:56.602Z,1.65
2019-04-25T16:18:27.299Z,1.80
2019-04-25T16:20:56.767Z,1.40
2019-04-25T16:23:26.289Z,1.80
2019-04-25T16:25:55.483Z,1.25
2019-04-25T16:28:24.639Z,1.20
2019-04-25T16:30:53.956Z,1.42
2019-04-25T16:33:23.112Z,1.50
2019-04-25T16:35:52.264Z,1.57
2019-04-25T16:38:21.499Z,1.30
2019-04-25T16:40:50.670Z,1.70
2019-04-25T16:43:21.454Z,1.25
2019-04-25T16:45:50.704Z,1.45
2019-04-25T16:48:19.925Z,1.72
2019-04-25T16:50:49.124Z,1.45
2019-04-25T16:53:18.332Z,2.25
2019-04-25T16:55:47.698Z,1.70
2019-04-25T16:58:16.886Z,1.32
2019-04-25T17:00:48.236Z,1.40
2019-04-25T17:03:18.502Z,1.60
2019-04-25T17:05:47.742Z,1.70
2019-04-25T17:08:18.986Z,1.22
2019-04-25T17:10:48.494Z,1.72
2019-04-25T17:13:18.110Z,1.62
2019-04-25T17:16:05.530Z,1.30
2019-04-25T17:18:45.119Z,1.67
2019-04-25T17:21:14.331Z,1.50
2019-04-25T17:23:43.739Z,1.80
2019-04-25T17:26:13.447Z,1.42
2019-04-25T17:28:44.458Z,1.52
2019-04-25T17:31:24.565Z,2.15
2019-04-25T17:33:58.392Z,1.60
2019-04-25T17:36:36.058Z,1.30
2019-04-25T17:39:24.771Z,1.30
2019-04-25T17:41:54.051Z,1.75
2019-04-25T17:44:23.285Z,1.62
2019-04-25T17:46:52.466Z,1.52
2019-04-25T17:49:21.606Z,1.50
2019-04-25T17:51:50.790Z,1.65
2019-04-25T17:54:20.030Z,2.10
2019-04-25T17:56:49.270Z,1.87
2019-04-25T17:59:18.447Z,1.72
2019-04-25T18:01:47.807Z,1.67
2019-04-25T18:04:20.759Z,2.10
2019-04-25T18:06:49.994Z,1.77
2019-04-25T18:09:19.285Z,1.82
2019-04-25T18:11:48.621Z,2.12
2019-04-25T18:14:17.921Z,1.60
2019-04-25T18:16:48.896Z,1.90
2019-04-25T18:19:19.780Z,1.50
2019-04-25T18:21:49.095Z,1.62
2019-04-25T18:24:36.688Z,1.52
2019-04-25T18:27:07.925Z,1.55
2019-04-25T18:29:37.433Z,1.37
2019-04-25T18:32:06.684Z,1.55
2019-04-25T18:34:37.546Z,1.45
2019-04-25T18:37:11.193Z,1.60
2019-04-25T18:39:51.096Z,1.82
2019-04-25T18:42:30.742Z,1.35
2019-04-25T18:45:00.147Z,1.82
2019-04-25T18:47:29.299Z,1.30
2019-04-25T18:49:58.551Z,1.30
2019-04-25T18:52:32.370Z,1.42
2019-04-25T18:55:03.194Z,1.35
2019-04-25T18:57:44.464Z,1.60
2019-04-25T19:00:31.969Z,1.20
2019-04-25T19:03:05.747Z,1.50
2019-04-25T19:05:45.323Z,1.27
2019-04-25T19:08:14.595Z,1.22
2019-04-25T19:10:43.834Z,1.98
2019-04-25T19:13:13.315Z,1.70
2019-04-25T19:15:43.099Z,1.42
2019-04-25T19:18:12.386Z,1.45
2019-04-25T19:20:41.756Z,1.15
2019-04-25T19:23:10.973Z,1.00
2019-04-25T19:25:40.293Z,1.35
2019-04-25T19:28:10.124Z,1.12
2019-04-25T19:30:41.046Z,1.30
2019-04-25T19:33:10.313Z,1.15
2019-04-25T19:35:40.574Z,1.45
2019-04-25T19:38:10.459Z,1.37
2019-04-25T19:40:50.228Z,1.30
2019-04-25T19:43:21.077Z,1.10
2019-04-25T19:45:51.167Z,1.30
2019-04-25T19:48:20.506Z,1.20
2019-04-25T19:50:50.579Z,1.07
2019-04-25T19:53:20.060Z,1.62
2019-04-25T19:55:49.690Z,1.10
2019-04-25T19:58:19.011Z,1.20
2019-04-25T20:00:49.450Z,0.80
2019-04-25T20:03:29.184Z,1.00
2019-04-25T20:06:09.014Z,1.10
2019-04-25T20:08:39.907Z,1.10
2019-04-25T20:11:22.860Z,1.00
2019-04-25T20:13:52.122Z,0.98
2019-04-25T20:16:21.357Z,0.90
2019-04-25T20:18:50.554Z,0.80
2019-04-25T20:21:19.724Z,1.17
2019-04-25T20:23:49.955Z,1.05
2019-04-25T20:26:19.326Z,1.27
2019-04-25T20:28:48.499Z,0.90
2019-04-25T20:31:17.723Z,1.05
2019-04-25T20:33:47.003Z,1.15
2019-04-25T20:36:17.771Z,1.10
2019-04-25T20:38:47.422Z,1.10
2019-04-25T20:41:16.614Z,1.02
2019-04-25T20:43:46.453Z,1.17
2019-04-25T20:46:16.791Z,0.90
2019-04-25T20:48:46.800Z,0.98
2019-04-25T20:51:16.300Z,1.05
2019-04-25T20:53:46.443Z,0.90
2019-04-25T20:56:16.340Z,0.90
2019-04-25T20:58:45.586Z,0.93
2019-04-25T21:01:14.818Z,0.82
2019-04-25T21:03:44.063Z,1.02
2019-04-25T21:06:18.259Z,1.00
2019-04-25T21:08:47.546Z,0.90
2019-04-25T21:11:16.778Z,1.00
2019-04-25T21:14:02.908Z,0.93
2019-04-25T21:16:42.653Z,1.00
2019-04-25T21:19:16.417Z,0.88
2019-04-25T21:21:45.681Z,1.10
2019-04-25T21:24:14.897Z,1.00
2019-04-25T21:26:44.065Z,0.80
2019-04-25T21:29:13.318Z,2.35
2019-04-25T21:31:42.627Z,1.10
2019-04-25T21:34:11.870Z,0.98
2019-04-25T21:36:41.621Z,0.70
2019-04-25T21:39:12.714Z,0.90
2019-04-25T21:41:55.591Z,0.90
2019-04-25T21:44:25.088Z,0.70
2019-04-25T21:46:54.690Z,0.90
2019-04-25T21:49:25.283Z,0.70
2019-04-25T21:51:55.073Z,1.00
2019-04-25T21:54:24.376Z,0.60
2019-04-25T21:56:54.207Z,1.07
2019-04-25T21:59:24.493Z,1.05
2019-04-25T22:01:54.876Z,1.00
2019-04-25T22:04:24.702Z,1.10
2019-04-25T22:06:54.253Z,0.80
2019-04-25T22:09:25.242Z,1.30
2019-04-25T22:11:54.796Z,0.80
2019-04-25T22:14:25.126Z,0.70
2019-04-25T22:16:55.459Z,0.90
2019-04-25T22:19:25.558Z,0.88
2019-04-25T22:21:55.079Z,0.70
2019-04-25T22:24:24.562Z,0.90
2019-04-25T22:26:55.402Z,1.25
2019-04-25T22:29:27.426Z,1.10
2019-04-25T22:31:59.274Z,1.10
2019-04-25T22:34:30.401Z,0.90
2019-04-25T22:36:59.900Z,1.00
2019-04-25T22:39:29.158Z,1.15
2019-04-25T22:41:59.554Z,1.07
2019-04-25T22:44:29.825Z,1.75
2019-04-25T22:47:00.796Z,3.08
2019-04-25T22:49:30.192Z,2.37
2019-04-25T22:51:59.410Z,1.27
2019-04-25T22:54:29.560Z,0.80
2019-04-25T22:56:58.724Z,1.22
2019-04-25T22:59:29.284Z,1.00
2019-04-25T23:02:00.864Z,0.82
2019-04-25T23:04:42.013Z,1.27
2019-04-25T23:07:12.298Z,1.40
2019-04-25T23:09:41.683Z,1.12
2019-04-25T23:12:11.249Z,1.25
2019-04-25T23:14:40.975Z,1.07
2019-04-25T23:17:11.501Z,1.35
2019-04-25T23:19:40.754Z,1.05
2019-04-25T23:22:09.925Z,1.17
2019-04-25T23:24:40.723Z,1.72
2019-04-25T23:27:28.429Z,1.37
2019-04-25T23:29:57.575Z,1.25
2019-04-25T23:32:27.124Z,1.50
2019-04-25T23:34:56.422Z,1.42
2019-04-25T23:37:25.659Z,1.30
2019-04-25T23:39:54.831Z,0.93
2019-04-25T23:42:24.007Z,1.10
2019-04-25T23:44:53.543Z,1.20
2019-04-25T23:47:22.782Z,1.15
2019-04-25T23:49:51.933Z,1.15
2019-04-25T23:52:21.643Z,1.10
2019-04-25T23:54:50.933Z,0.98
2019-04-25T23:57:20.618Z,0.98
2019-04-25T23:59:49.871Z,1.10
